createdAt,value
2023-04-27T00:01:00.762Z,101282.16
2023-04-27T00:03:28.514Z,101284.81
2023-04-27T00:05:55.169Z,101270.16
2023-04-27T00:08:21.849Z,101264.91
2023-04-27T00:10:48.300Z,101257.06
2023-04-27T00:13:14.745Z,101254.47
2023-04-27T00:15:41.191Z,101266.41
2023-04-27T00:18:07.805Z,101256.91
2023-04-27T00:20:34.263Z,101257.78
2023-04-27T00:23:00.750Z,101264.75
2023-04-27T00:25:27.231Z,101260.97
2023-04-27T00:27:53.674Z,101264.53
2023-04-27T00:30:20.132Z,101258.44
2023-04-27T00:32:46.861Z,101277.59
2023-04-27T00:35:13.418Z,101268.63
2023-04-27T00:37:39.897Z,101272.31
2023-04-27T00:40:07.993Z,101283.56
2023-04-27T00:42:35.480Z,101281.81
2023-04-27T00:45:02.024Z,101279.28
2023-04-27T00:47:30.548Z,101283.56
2023-04-27T00:49:57.030Z,101280.91
2023-04-27T00:52:23.603Z,101281.66
2023-04-27T00:54:54.836Z,101282.06
2023-04-27T00:57:23.205Z,101273.94
2023-04-27T00:59:49.626Z,101281.63
2023-04-27T01:02:16.851Z,101289.94
2023-04-27T01:04:43.834Z,101293.84
2023-04-27T01:07:10.258Z,101297.81
2023-04-27T01:09:36.676Z,101299.03
2023-04-27T01:12:03.608Z,101301.25
2023-04-27T01:14:30.080Z,101278.31
2023-04-27T01:16:56.550Z,101293.06
2023-04-27T01:19:23.431Z,101294.88
2023-04-27T01:21:50.005Z,101297.09
2023-04-27T01:24:16.773Z,101299.03
2023-04-27T01:26:43.150Z,101310.97
2023-04-27T01:29:09.560Z,101299.47
2023-04-27T01:31:36.067Z,101297.47
2023-04-27T01:34:02.511Z,101278.97
2023-04-27T01:50:28.592Z,101321.19
2023-04-27T01:52:55.031Z,101293.59
2023-04-27T01:55:21.437Z,101319.03
2023-04-27T01:57:47.868Z,101321.66
2023-04-27T02:00:14.578Z,101320.41
2023-04-27T02:02:41.114Z,101327.19
2023-04-27T02:05:08.003Z,101318.91
2023-04-27T02:07:34.371Z,101333.22
2023-04-27T02:10:00.803Z,101310.94
2023-04-27T02:12:27.224Z,101314.09
2023-04-27T02:14:53.630Z,101332.09
2023-04-27T02:17:20.062Z,101326.47
2023-04-27T02:19:46.483Z,101341.81
2023-04-27T02:22:12.954Z,101322.16
2023-04-27T02:24:39.367Z,101325.25
2023-04-27T02:27:06.145Z,101340.09
2023-04-27T02:29:33.245Z,101329.31
2023-04-27T02:32:00.246Z,101337.97
2023-04-27T02:34:26.743Z,101333.22
2023-04-27T02:36:53.176Z,101340.44
2023-04-27T02:39:19.632Z,101329.50
2023-04-27T02:41:49.307Z,101327.63
2023-04-27T02:44:15.825Z,101338.03
2023-04-27T02:46:42.364Z,101338.94
2023-04-27T02:49:08.839Z,101353.91
2023-04-27T02:51:35.407Z,101346.41
2023-04-27T02:54:01.854Z,101336.03
2023-04-27T02:56:28.761Z,101338.41
2023-04-27T02:58:55.156Z,101340.50
2023-04-27T03:01:22.103Z,101369.38
2023-04-27T03:03:48.841Z,101339.81
2023-04-27T03:06:15.361Z,101363.00
2023-04-27T03:08:42.118Z,101351.28
2023-04-27T03:11:09.412Z,101360.22
2023-04-27T03:13:41.932Z,101350.88
2023-04-27T03:16:10.362Z,101359.03
2023-04-27T03:18:37.622Z,101332.78
2023-04-27T03:21:12.038Z,101350.94
2023-04-27T03:23:39.190Z,101361.69
2023-04-27T03:26:10.324Z,101352.06
2023-04-27T03:28:37.289Z,101370.66
2023-04-27T03:31:11.749Z,101361.56
2023-04-27T03:33:38.760Z,101367.75
2023-04-27T03:36:07.264Z,101373.31
2023-04-27T03:38:34.465Z,101369.06
2023-04-27T03:41:01.129Z,101376.25
2023-04-27T03:43:28.260Z,101381.53
2023-04-27T03:45:54.812Z,101380.06
2023-04-27T03:48:21.758Z,101379.78
2023-04-27T03:50:48.348Z,101379.72
2023-04-27T03:53:15.048Z,101382.13
2023-04-27T03:55:42.350Z,101388.63
2023-04-27T03:58:12.647Z,101378.22
2023-04-27T04:00:40.932Z,101389.38
2023-04-27T04:03:08.089Z,101376.22
2023-04-27T04:05:34.892Z,101386.53
2023-04-27T04:08:01.411Z,101381.97
2023-04-27T04:10:27.900Z,101386.34
2023-04-27T04:12:54.413Z,101401.16
2023-04-27T04:15:21.046Z,101407.34
2023-04-27T04:17:49.215Z,101410.06
2023-04-27T04:20:16.109Z,101418.72
2023-04-27T04:22:43.271Z,101409.22
2023-04-27T04:25:10.127Z,101415.06
2023-04-27T04:27:37.663Z,101415.75
2023-04-27T04:30:06.620Z,101409.59
2023-04-27T04:32:38.080Z,101405.41
2023-04-27T04:35:07.969Z,101418.41
2023-04-27T04:37:35.476Z,101418.16
2023-04-27T04:40:09.109Z,101418.22
2023-04-27T04:42:37.531Z,101424.41
2023-04-27T04:45:04.478Z,101428.31
2023-04-27T04:47:34.559Z,101407.31
2023-04-27T04:50:01.559Z,101406.97
2023-04-27T04:52:28.086Z,101427.69
2023-04-27T04:54:54.539Z,101415.06
2023-04-27T04:57:21.335Z,101426.09
2023-04-27T04:59:47.940Z,101408.22
2023-04-27T05:02:14.557Z,101421.91
2023-04-27T05:04:41.065Z,101436.59
2023-04-27T05:07:07.660Z,101414.72
2023-04-27T05:09:34.119Z,101426.94
2023-04-27T05:12:01.887Z,101419.38
2023-04-27T05:14:28.428Z,101433.47
2023-04-27T05:16:54.961Z,101432.13
2023-04-27T05:19:21.656Z,101425.72
2023-04-27T05:21:48.045Z,101441.66
2023-04-27T05:24:14.497Z,101434.09
2023-04-27T05:26:42.766Z,101432.09
2023-04-27T05:29:09.391Z,101441.31
2023-04-27T05:31:36.049Z,101442.66
2023-04-27T05:34:02.620Z,101436.13
2023-04-27T05:36:29.121Z,101425.59
2023-04-27T05:38:56.014Z,101417.69
2023-04-27T05:41:24.092Z,101404.38
2023-04-27T05:43:51.603Z,101412.25
2023-04-27T05:46:18.241Z,101434.66
2023-04-27T05:48:44.779Z,101437.09
2023-04-27T05:51:11.254Z,101427.31
2023-04-27T05:53:37.697Z,101451.53
2023-04-27T05:56:06.690Z,101439.13
2023-04-27T05:58:33.677Z,101437.09
2023-04-27T06:01:06.212Z,101441.25
2023-04-27T06:03:33.142Z,101450.06
2023-04-27T06:06:01.983Z,101437.31
2023-04-27T06:08:28.581Z,101469.91
2023-04-27T06:10:55.193Z,101439.25
2023-04-27T06:13:21.798Z,101456.56
2023-04-27T06:15:48.341Z,101458.25
2023-04-27T06:18:14.896Z,101454.81
2023-04-27T06:20:42.195Z,101447.63
2023-04-27T06:23:08.673Z,101457.94
2023-04-27T06:25:35.825Z,101469.03
2023-04-27T06:28:02.298Z,101465.22
2023-04-27T06:30:28.785Z,101462.69
2023-04-27T06:32:55.285Z,101462.19
2023-04-27T06:35:21.806Z,101456.91
2023-04-27T06:37:48.348Z,101461.53
2023-04-27T06:40:14.928Z,101476.25
2023-04-27T06:42:41.400Z,101459.97
2023-04-27T06:45:08.400Z,101478.94
2023-04-27T06:47:34.820Z,101474.72
2023-04-27T06:50:01.270Z,101475.31
2023-04-27T06:52:27.718Z,101469.84
2023-04-27T06:54:54.302Z,101462.88
2023-04-27T06:57:20.735Z,101476.66
2023-04-27T06:59:47.164Z,101452.47
2023-04-27T07:02:13.596Z,101468.50
2023-04-27T07:04:40.258Z,101480.53
2023-04-27T07:07:07.083Z,101479.41
2023-04-27T07:09:33.756Z,101479.66
2023-04-27T07:12:01.384Z,101486.56
2023-04-27T07:14:27.999Z,101471.41
2023-04-27T07:16:55.068Z,101462.19
2023-04-27T07:19:21.540Z,101463.59
2023-04-27T07:21:48.051Z,101464.81
2023-04-27T07:24:14.493Z,101489.09
2023-04-27T07:26:41.456Z,101476.75
2023-04-27T07:29:22.916Z,101467.34
2023-04-27T07:31:52.032Z,101459.75
2023-04-27T07:34:18.826Z,101469.81
2023-04-27T07:36:45.323Z,101466.47
2023-04-27T07:39:12.627Z,101472.63
2023-04-27T07:41:39.284Z,101475.25
2023-04-27T07:44:05.729Z,101480.16
2023-04-27T07:46:32.340Z,101475.00
2023-04-27T07:49:00.429Z,101482.88
2023-04-27T07:51:28.765Z,101485.19
2023-04-27T07:53:55.732Z,101472.00
2023-04-27T07:56:22.381Z,101498.31
2023-04-27T07:58:48.812Z,101483.25
2023-04-27T08:01:15.308Z,101476.09
2023-04-27T08:03:42.080Z,101486.78
2023-04-27T08:06:08.955Z,101483.28
2023-04-27T08:08:35.785Z,101495.47
2023-04-27T08:11:02.267Z,101498.22
2023-04-27T08:13:28.774Z,101493.53
2023-04-27T08:15:59.298Z,101488.09
2023-04-27T08:18:27.194Z,101492.94
2023-04-27T08:20:54.323Z,101489.00
2023-04-27T08:23:21.012Z,101496.16
2023-04-27T08:25:48.540Z,101510.56
2023-04-27T08:28:15.235Z,101510.47
2023-04-27T08:30:42.656Z,101513.19
2023-04-27T08:33:09.213Z,101501.72
2023-04-27T08:35:35.696Z,101505.84
2023-04-27T08:38:02.368Z,101508.84
2023-04-27T08:40:28.924Z,101494.78
2023-04-27T08:43:01.170Z,101500.03
2023-04-27T08:45:28.075Z,101485.59
2023-04-27T08:47:54.792Z,101486.34
2023-04-27T08:50:24.171Z,101479.34
2023-04-27T08:52:51.059Z,101491.13
2023-04-27T08:55:17.485Z,101505.16
2023-04-27T08:57:57.490Z,101479.75
2023-04-27T09:00:25.862Z,101507.34
2023-04-27T09:02:52.496Z,101500.03
2023-04-27T09:05:20.972Z,101508.03
2023-04-27T09:08:16.859Z,101511.31
2023-04-27T09:10:47.861Z,101507.34
2023-04-27T09:13:15.045Z,101509.41
2023-04-27T09:15:44.259Z,101516.88
2023-04-27T09:18:22.393Z,101504.19
2023-04-27T09:20:49.992Z,101521.97
2023-04-27T09:23:28.102Z,101507.66
2023-04-27T09:25:56.557Z,101511.56
2023-04-27T09:28:24.806Z,101490.25
2023-04-27T09:30:53.831Z,101485.97
2023-04-27T09:33:31.656Z,101485.38
2023-04-27T09:36:04.209Z,101488.91
2023-04-27T09:38:31.424Z,101484.16
2023-04-27T09:41:00.326Z,101488.00
2023-04-27T09:43:28.805Z,101492.88
2023-04-27T09:45:56.046Z,101482.84
2023-04-27T09:48:23.984Z,101478.09
2023-04-27T09:50:51.711Z,101487.34
2023-04-27T09:53:29.335Z,101477.84
2023-04-27T09:56:14.745Z,101484.81
2023-04-27T09:59:03.996Z,101473.09
2023-04-27T10:01:41.965Z,101466.28
2023-04-27T10:04:35.099Z,101480.38
2023-04-27T10:07:04.949Z,101462.97
2023-04-27T10:09:37.463Z,101453.00
2023-04-27T10:12:14.591Z,101442.50
2023-04-27T10:14:51.710Z,101471.28
2023-04-27T10:17:18.725Z,101448.59
2023-04-27T10:20:04.767Z,101451.25
2023-04-27T10:22:48.143Z,101455.75
2023-04-27T10:25:23.115Z,101456.34
2023-04-27T10:27:52.570Z,101458.06
2023-04-27T10:30:20.293Z,101450.03
2023-04-27T10:32:51.961Z,101453.38
2023-04-27T10:35:20.938Z,101467.78
2023-04-27T10:37:47.866Z,101451.72
2023-04-27T10:40:17.335Z,101454.63
2023-04-27T10:42:45.622Z,101457.22
2023-04-27T10:45:15.079Z,101461.44
2023-04-27T10:47:43.345Z,101469.88
2023-04-27T10:50:14.511Z,101468.00
2023-04-27T10:52:42.754Z,101466.75
2023-04-27T10:55:22.916Z,101464.69
2023-04-27T10:57:54.429Z,101470.41
2023-04-27T11:00:25.525Z,101448.09
2023-04-27T11:02:56.297Z,101453.97
2023-04-27T11:05:33.345Z,101468.25
2023-04-27T11:08:08.265Z,101458.56
2023-04-27T11:10:38.383Z,101446.63
2023-04-27T11:13:13.212Z,101460.78
2023-04-27T11:15:57.552Z,101462.69
2023-04-27T11:18:26.820Z,101455.25
2023-04-27T11:20:55.164Z,101464.88
2023-04-27T11:23:32.162Z,101469.41
2023-04-27T11:25:58.745Z,101464.50
2023-04-27T11:28:26.128Z,101479.75
2023-04-27T11:30:59.490Z,101489.88
2023-04-27T11:33:27.246Z,101467.06
2023-04-27T11:35:56.343Z,101470.91
2023-04-27T11:38:23.220Z,101479.03
2023-04-27T11:41:00.197Z,101487.34
2023-04-27T11:43:27.638Z,101488.97
2023-04-27T11:45:55.555Z,101487.09
2023-04-27T11:48:27.061Z,101480.56
2023-04-27T11:50:53.494Z,101485.44
2023-04-27T11:53:39.253Z,101500.09
2023-04-27T11:56:07.976Z,101497.03
2023-04-27T11:58:36.203Z,101493.38
2023-04-27T12:01:04.276Z,101508.34
2023-04-27T12:03:31.787Z,101490.75
2023-04-27T12:06:11.407Z,101488.66
2023-04-27T12:08:43.003Z,101499.06
2023-04-27T12:11:09.492Z,101499.31
2023-04-27T12:13:36.102Z,101503.50
2023-04-27T12:16:02.523Z,101507.94
2023-04-27T12:18:29.007Z,101503.78
2023-04-27T12:20:55.436Z,101498.97
2023-04-27T12:23:21.883Z,101499.06
2023-04-27T12:25:48.561Z,101500.34
2023-04-27T12:28:19.070Z,101508.56
2023-04-27T12:30:45.576Z,101493.34
2023-04-27T12:33:12.169Z,101495.06
2023-04-27T12:35:38.793Z,101504.06
2023-04-27T12:38:05.326Z,101487.59
2023-04-27T12:40:33.973Z,101484.59
2023-04-27T12:43:01.570Z,101501.56
2023-04-27T12:45:28.097Z,101497.69
2023-04-27T12:48:03.534Z,101486.13
2023-04-27T12:50:32.397Z,101479.88
2023-04-27T12:52:59.755Z,101494.28
2023-04-27T12:55:33.525Z,101491.41
2023-04-27T12:58:01.310Z,101498.34
2023-04-27T13:00:29.378Z,101495.59
2023-04-27T13:02:56.598Z,101496.19
2023-04-27T13:05:23.441Z,101479.34
2023-04-27T13:07:49.866Z,101496.97
2023-04-27T13:10:16.418Z,101494.81
2023-04-27T13:12:42.913Z,101479.25
2023-04-27T13:15:10.156Z,101482.41
2023-04-27T13:17:36.790Z,101490.59
2023-04-27T13:20:03.511Z,101492.84
2023-04-27T13:22:29.885Z,101501.09
2023-04-27T13:24:56.480Z,101494.31
2023-04-27T13:27:25.278Z,101481.63
2023-04-27T13:29:51.845Z,101500.63
2023-04-27T13:32:18.809Z,101499.25
2023-04-27T13:34:45.485Z,101507.25
2023-04-27T13:37:12.085Z,101492.84
2023-04-27T13:39:38.611Z,101477.72
2023-04-27T13:42:05.123Z,101492.53
2023-04-27T13:44:31.916Z,101479.34
2023-04-27T13:46:58.504Z,101496.88
2023-04-27T13:49:26.000Z,101494.31
2023-04-27T13:51:52.594Z,101482.59
2023-04-27T13:54:20.052Z,101503.31
2023-04-27T13:56:46.580Z,101493.75
2023-04-27T13:59:13.221Z,101498.44
2023-04-27T14:01:40.328Z,101512.63
2023-04-27T14:04:07.504Z,101495.03
2023-04-27T14:06:34.252Z,101489.63
2023-04-27T14:09:00.841Z,101504.94
2023-04-27T14:11:27.696Z,101506.25
2023-04-27T14:13:56.781Z,101500.63
2023-04-27T14:16:24.657Z,101503.19
2023-04-27T14:18:52.417Z,101494.72
2023-04-27T14:21:22.013Z,101502.63
2023-04-27T14:23:58.978Z,101495.75
2023-04-27T14:26:25.753Z,101470.75
2023-04-27T14:28:52.164Z,101498.75
2023-04-27T14:31:18.663Z,101488.41
2023-04-27T14:33:45.136Z,101474.78
2023-04-27T14:36:11.645Z,101465.22
2023-04-27T14:38:38.073Z,101479.53
2023-04-27T14:41:04.576Z,101462.22
2023-04-27T14:43:31.792Z,101483.53
2023-04-27T14:46:05.082Z,101492.25
2023-04-27T14:48:38.755Z,101475.03
2023-04-27T14:51:06.421Z,101485.47
2023-04-27T14:53:33.320Z,101496.22
2023-04-27T14:55:59.885Z,101507.16
2023-04-27T14:58:26.425Z,101504.13
2023-04-27T15:00:52.889Z,101476.00
2023-04-27T15:03:20.316Z,101493.38
2023-04-27T15:05:46.955Z,101485.34
2023-04-27T15:08:13.406Z,101481.47
2023-04-27T15:10:39.852Z,101476.78
2023-04-27T15:13:06.284Z,101498.13
2023-04-27T15:15:32.730Z,101484.78
2023-04-27T15:17:59.250Z,101491.34
2023-04-27T15:20:25.942Z,101481.28
2023-04-27T15:22:52.401Z,101490.44
2023-04-27T15:25:19.253Z,101491.28
2023-04-27T15:27:45.713Z,101491.16
2023-04-27T15:30:13.331Z,101475.16
2023-04-27T15:32:39.811Z,101473.94
2023-04-27T15:35:06.845Z,101481.81
2023-04-27T15:37:35.818Z,101465.25
2023-04-27T15:40:03.713Z,101470.84
2023-04-27T15:42:30.173Z,101466.84
2023-04-27T15:44:57.776Z,101470.38
2023-04-27T15:47:24.270Z,101469.63
2023-04-27T15:49:57.608Z,101461.09
2023-04-27T15:52:27.088Z,101461.22
2023-04-27T15:54:53.684Z,101452.91
2023-04-27T15:57:20.118Z,101447.81
2023-04-27T15:59:46.692Z,101450.78
2023-04-27T16:02:13.755Z,101449.63
2023-04-27T16:04:40.322Z,101442.06
2023-04-27T16:07:07.426Z,101448.16
2023-04-27T16:09:34.123Z,101435.84
2023-04-27T16:12:01.519Z,101433.28
2023-04-27T16:14:27.920Z,101449.78
2023-04-27T16:16:56.204Z,101435.50
2023-04-27T16:19:22.789Z,101437.53
2023-04-27T16:21:49.634Z,101440.44
2023-04-27T16:24:16.081Z,101437.28
2023-04-27T16:26:42.512Z,101431.47
2023-04-27T16:29:08.941Z,101424.09
2023-04-27T16:31:35.660Z,101438.53
2023-04-27T16:34:02.062Z,101436.34
2023-04-27T16:36:28.831Z,101403.53
2023-04-27T16:38:55.197Z,101424.47
2023-04-27T16:41:22.323Z,101426.59
2023-04-27T16:43:50.807Z,101429.28
2023-04-27T16:46:17.548Z,101413.50
2023-04-27T16:48:44.066Z,101432.22
2023-04-27T16:51:10.726Z,101430.69
2023-04-27T16:53:37.185Z,101436.28
2023-04-27T16:56:03.895Z,101424.59
2023-04-27T16:58:30.760Z,101432.75
2023-04-27T17:00:58.082Z,101430.22
2023-04-27T17:03:25.108Z,101447.59
2023-04-27T17:05:52.493Z,101438.69
2023-04-27T17:08:21.046Z,101445.84
2023-04-27T17:10:47.750Z,101435.59
2023-04-27T17:13:16.556Z,101445.69
2023-04-27T17:15:43.049Z,101434.19
2023-04-27T17:18:10.511Z,101433.22
2023-04-27T17:20:38.359Z,101433.59
2023-04-27T17:23:07.175Z,101435.31
2023-04-27T17:25:33.596Z,101442.59
2023-04-27T17:28:01.466Z,101439.84
2023-04-27T17:30:28.197Z,101432.47
2023-04-27T17:32:54.690Z,101435.69
2023-04-27T17:35:21.196Z,101442.03
2023-04-27T17:37:47.726Z,101451.50
2023-04-27T17:40:16.386Z,101449.47
2023-04-27T17:42:42.842Z,101440.13
2023-04-27T17:45:09.633Z,101421.19
2023-04-27T17:47:36.715Z,101446.38
2023-04-27T17:50:03.265Z,101439.84
2023-04-27T17:52:29.718Z,101429.91
2023-04-27T17:54:56.512Z,101443.09
2023-04-27T17:57:22.922Z,101455.38
2023-04-27T17:59:50.412Z,101436.94
2023-04-27T18:02:17.523Z,101440.66
2023-04-27T18:04:44.004Z,101464.03
2023-04-27T18:07:10.442Z,101446.78
2023-04-27T18:09:36.857Z,101451.19
2023-04-27T18:12:06.000Z,101459.03
2023-04-27T18:14:32.428Z,101458.88
2023-04-27T18:16:58.947Z,101460.31
2023-04-27T18:19:25.600Z,101465.84
2023-04-27T18:21:52.051Z,101472.31
2023-04-27T18:24:18.462Z,101455.84
2023-04-27T18:26:44.913Z,101465.16
2023-04-27T18:29:11.375Z,101472.47
2023-04-27T18:31:38.066Z,101461.91
2023-04-27T18:34:04.444Z,101486.47
2023-04-27T18:36:31.613Z,101480.97
2023-04-27T18:38:58.381Z,101484.09
2023-04-27T18:41:24.768Z,101486.25
2023-04-27T18:43:51.480Z,101476.59
2023-04-27T18:46:18.122Z,101503.22
2023-04-27T18:48:44.622Z,101503.72
2023-04-27T18:51:11.177Z,101497.56
2023-04-27T18:53:37.607Z,101499.84
2023-04-27T18:56:04.156Z,101505.75
2023-04-27T18:58:30.780Z,101501.97
2023-04-27T19:00:57.236Z,101498.25
2023-04-27T19:03:24.026Z,101491.63
2023-04-27T19:05:52.454Z,101478.66
2023-04-27T19:08:18.890Z,101479.41
2023-04-27T19:10:45.382Z,101483.66
2023-04-27T19:13:12.040Z,101481.28
2023-04-27T19:15:38.743Z,101500.16
2023-04-27T19:18:10.681Z,101506.91
2023-04-27T19:20:38.736Z,101506.03
2023-04-27T19:23:05.797Z,101496.03
2023-04-27T19:25:32.342Z,101511.34
2023-04-27T19:27:59.091Z,101495.72
2023-04-27T19:30:25.680Z,101509.63
2023-04-27T19:32:52.195Z,101493.53
2023-04-27T19:35:20.314Z,101483.03
2023-04-27T19:37:46.749Z,101499.81
2023-04-27T19:40:13.626Z,101495.69
2023-04-27T19:42:40.135Z,101488.56
2023-04-27T19:45:07.185Z,101471.66
2023-04-27T19:47:33.898Z,101485.22
2023-04-27T19:50:00.385Z,101507.13
2023-04-27T19:52:26.966Z,101499.59
2023-04-27T19:54:54.457Z,101488.72
2023-04-27T19:57:21.402Z,101471.03
2023-04-27T19:59:48.193Z,101479.69
2023-04-27T20:02:14.846Z,101501.91
2023-04-27T20:04:41.862Z,101510.88
2023-04-27T20:07:08.602Z,101479.88
2023-04-27T20:09:35.063Z,101485.41
2023-04-27T20:12:01.479Z,101488.81
2023-04-27T20:14:30.069Z,101488.31
2023-04-27T20:16:56.812Z,101502.22
2023-04-27T20:19:25.208Z,101497.91
2023-04-27T20:21:51.688Z,101489.53
2023-04-27T20:24:18.215Z,101490.97
2023-04-27T20:26:44.814Z,101494.13
2023-04-27T20:29:11.524Z,101501.84
2023-04-27T20:31:38.027Z,101495.41
2023-04-27T20:34:04.485Z,101494.38
2023-04-27T20:36:32.012Z,101474.59
2023-04-27T20:39:02.385Z,101487.75
2023-04-27T20:41:28.830Z,101465.44
2023-04-27T20:43:55.458Z,101482.56
2023-04-27T20:46:21.904Z,101473.50
2023-04-27T20:48:48.441Z,101486.63
2023-04-27T20:51:15.063Z,101486.13
2023-04-27T20:53:41.577Z,101475.28
2023-04-27T20:56:08.954Z,101491.72
2023-04-27T20:58:41.624Z,101453.22
2023-04-27T21:01:08.154Z,101470.16
2023-04-27T21:03:35.667Z,101458.69
2023-04-27T21:06:02.434Z,101477.06
2023-04-27T21:08:29.016Z,101468.28
2023-04-27T21:10:57.057Z,101468.88
2023-04-27T21:13:24.317Z,101481.16
2023-04-27T21:15:50.728Z,101452.78
2023-04-27T21:18:29.249Z,101441.78
2023-04-27T21:20:57.046Z,101465.78
2023-04-27T21:23:23.660Z,101464.31
2023-04-27T21:25:50.087Z,101454.19
2023-04-27T21:28:16.653Z,101459.88
2023-04-27T21:30:43.099Z,101467.94
2023-04-27T21:33:09.711Z,101460.69
2023-04-27T21:35:36.281Z,101457.81
2023-04-27T21:38:02.794Z,101472.72
2023-04-27T21:40:29.327Z,101467.16
2023-04-27T21:42:56.410Z,101467.97
2023-04-27T21:45:23.261Z,101456.53
2023-04-27T21:47:49.703Z,101469.09
2023-04-27T21:50:16.821Z,101447.09
2023-04-27T21:52:43.280Z,101434.50
2023-04-27T21:55:10.049Z,101468.94
2023-04-27T21:57:36.840Z,101443.75
2023-04-27T22:00:08.722Z,101446.66
2023-04-27T22:02:35.274Z,101461.53
2023-04-27T22:05:02.584Z,101464.88
2023-04-27T22:07:29.278Z,101451.75
2023-04-27T22:09:55.679Z,101465.69
2023-04-27T22:12:22.136Z,101451.16
2023-04-27T22:14:48.589Z,101465.34
2023-04-27T22:17:15.274Z,101467.00
2023-04-27T22:19:42.227Z,101468.47
2023-04-27T22:22:09.836Z,101473.31
2023-04-27T22:24:36.289Z,101472.09
2023-04-27T22:27:04.013Z,101466.09
2023-04-27T22:29:30.889Z,101462.53
2023-04-27T22:32:09.627Z,101468.66
2023-04-27T22:34:37.231Z,101449.19
2023-04-27T22:37:03.731Z,101473.56
2023-04-27T22:39:30.518Z,101492.44
2023-04-27T22:41:57.002Z,101470.97
2023-04-27T22:44:23.459Z,101482.09
2023-04-27T22:46:49.972Z,101465.25
2023-04-27T22:49:17.307Z,101470.78
2023-04-27T22:51:43.772Z,101474.69
2023-04-27T22:54:10.174Z,101470.50
2023-04-27T22:56:36.591Z,101475.22
2023-04-27T22:59:03.303Z,101468.94
2023-04-27T23:01:32.892Z,101476.50
2023-04-27T23:03:59.478Z,101468.69
2023-04-27T23:06:28.175Z,101471.31
2023-04-27T23:08:54.640Z,101448.25
2023-04-27T23:11:21.032Z,101463.09
2023-04-27T23:13:50.672Z,101460.28
2023-04-27T23:16:17.128Z,101454.34
2023-04-27T23:18:43.641Z,101453.16
2023-04-27T23:21:11.589Z,101461.69
2023-04-27T23:23:38.181Z,101443.16
2023-04-27T23:26:11.980Z,101449.59
2023-04-27T23:28:38.418Z,101448.78
2023-04-27T23:31:04.865Z,101448.22
2023-04-27T23:33:31.690Z,101447.56
2023-04-27T23:35:58.090Z,101444.13
2023-04-27T23:38:24.519Z,101446.53
2023-04-27T23:40:52.552Z,101441.84
2023-04-27T23:43:19.126Z,101443.44
2023-04-27T23:45:50.885Z,101426.81
2023-04-27T23:48:17.875Z,101435.91
2023-04-27T23:50:44.323Z,101421.38
2023-04-27T23:53:10.919Z,101421.84
2023-04-27T23:55:37.644Z,101421.47
2023-04-27T23:58:04.063Z,101436.84
